sensor_id;sensor_type;location;lat;lon;timestamp;pressure;altitude;pressure_sealevel;temperature;humidity
51603;BME280;37954;51.980;5.850;2023-05-18T00:02:16;102509.22;;;8.10;61.98
51603;BME280;37954;51.980;5.850;2023-05-18T00:06:28;102515.75;;;8.16;62.31
51603;BME280;37954;51.980;5.850;2023-05-18T00:10:39;102503.84;;;8.02;62.33
51603;BME280;37954;51.980;5.850;2023-05-18T00:14:51;102510.72;;;8.04;62.65
51603;BME280;37954;51.980;5.850;2023-05-18T00:19:03;102506.00;;;7.98;62.50
51603;BME280;37954;51.980;5.850;2023-05-18T00:23:16;102517.69;;;7.97;63.25
51603;BME280;37954;51.980;5.850;2023-05-18T00:27:27;102518.06;;;7.94;62.70
51603;BME280;37954;51.980;5.850;2023-05-18T00:31:39;102513.84;;;7.92;62.83
51603;BME280;37954;51.980;5.850;2023-05-18T00:35:53;102509.81;;;7.88;62.61
51603;BME280;37954;51.980;5.850;2023-05-18T00:40:07;102530.22;;;7.89;62.60
51603;BME280;37954;51.980;5.850;2023-05-18T00:44:19;102526.19;;;7.85;63.41
51603;BME280;37954;51.980;5.850;2023-05-18T00:48:31;102521.66;;;7.77;63.23
51603;BME280;37954;51.980;5.850;2023-05-18T00:52:44;102516.31;;;7.77;63.58
51603;BME280;37954;51.980;5.850;2023-05-18T00:56:56;102507.09;;;7.72;64.26
51603;BME280;37954;51.980;5.850;2023-05-18T01:01:12;102522.31;;;7.71;63.97
51603;BME280;37954;51.980;5.850;2023-05-18T01:05:24;102529.69;;;7.77;63.83
51603;BME280;37954;51.980;5.850;2023-05-18T01:09:36;102526.13;;;7.68;63.81
51603;BME280;37954;51.980;5.850;2023-05-18T01:14:01;102520.56;;;7.62;63.99
51603;BME280;37954;51.980;5.850;2023-05-18T01:18:29;102524.59;;;7.58;64.07
51603;BME280;37954;51.980;5.850;2023-05-18T01:27:17;102532.22;;;7.53;64.47
51603;BME280;37954;51.980;5.850;2023-05-18T01:31:32;102512.13;;;7.41;64.69
51603;BME280;37954;51.980;5.850;2023-05-18T01:35:46;102533.34;;;7.42;64.43
51603;BME280;37954;51.980;5.850;2023-05-18T01:40:03;102526.28;;;7.33;65.35
51603;BME280;37954;51.980;5.850;2023-05-18T01:44:26;102532.31;;;7.35;64.66
51603;BME280;37954;51.980;5.850;2023-05-18T01:48:41;102528.91;;;7.25;65.52
51603;BME280;37954;51.980;5.850;2023-05-18T01:53:15;102544.44;;;7.29;64.78
51603;BME280;37954;51.980;5.850;2023-05-18T01:57:31;102531.88;;;7.22;65.85
51603;BME280;37954;51.980;5.850;2023-05-18T02:01:44;102542.59;;;7.22;65.07
51603;BME280;37954;51.980;5.850;2023-05-18T02:05:55;102543.41;;;7.22;65.59
51603;BME280;37954;51.980;5.850;2023-05-18T02:10:07;102531.66;;;7.15;65.94
51603;BME280;37954;51.980;5.850;2023-05-18T02:14:19;102527.97;;;7.08;65.33
51603;BME280;37954;51.980;5.850;2023-05-18T02:18:31;102535.81;;;7.10;66.28
51603;BME280;37954;51.980;5.850;2023-05-18T02:22:47;102544.19;;;7.15;65.65
51603;BME280;37954;51.980;5.850;2023-05-18T02:26:58;102528.81;;;7.09;65.46
51603;BME280;37954;51.980;5.850;2023-05-18T02:31:11;102526.59;;;7.04;65.79
51603;BME280;37954;51.980;5.850;2023-05-18T02:35:23;102520.41;;;7.04;66.16
51603;BME280;37954;51.980;5.850;2023-05-18T02:39:35;102525.38;;;6.98;66.13
51603;BME280;37954;51.980;5.850;2023-05-18T02:43:47;102510.47;;;6.96;66.30
51603;BME280;37954;51.980;5.850;2023-05-18T02:47:59;102513.69;;;6.99;66.82
51603;BME280;37954;51.980;5.850;2023-05-18T02:52:11;102498.75;;;6.89;66.16
51603;BME280;37954;51.980;5.850;2023-05-18T02:56:23;102507.97;;;6.94;66.68
51603;BME280;37954;51.980;5.850;2023-05-18T03:00:42;102512.13;;;6.89;66.76
51603;BME280;37954;51.980;5.850;2023-05-18T03:04:54;102511.13;;;6.90;66.57
51603;BME280;37954;51.980;5.850;2023-05-18T03:09:08;102512.44;;;6.86;66.90
51603;BME280;37954;51.980;5.850;2023-05-18T03:13:24;102490.28;;;6.76;66.81
51603;BME280;37954;51.980;5.850;2023-05-18T03:17:36;102519.59;;;6.85;66.33
51603;BME280;37954;51.980;5.850;2023-05-18T03:21:48;102526.25;;;6.81;66.72
51603;BME280;37954;51.980;5.850;2023-05-18T03:26:03;102507.50;;;6.73;66.70
51603;BME280;37954;51.980;5.850;2023-05-18T03:30:22;102514.50;;;6.74;67.01
51603;BME280;37954;51.980;5.850;2023-05-18T03:34:34;102514.66;;;6.73;66.74
51603;BME280;37954;51.980;5.850;2023-05-18T03:38:47;102530.75;;;6.81;67.33
51603;BME280;37954;51.980;5.850;2023-05-18T03:43:00;102538.97;;;6.87;67.55
51603;BME280;37954;51.980;5.850;2023-05-18T03:47:12;102531.13;;;6.86;67.05
51603;BME280;37954;51.980;5.850;2023-05-18T03:51:24;102532.94;;;6.85;67.46
51603;BME280;37954;51.980;5.850;2023-05-18T03:55:37;102539.53;;;6.91;67.51
51603;BME280;37954;51.980;5.850;2023-05-18T03:59:49;102530.03;;;6.96;67.81
51603;BME280;37954;51.980;5.850;2023-05-18T04:04:01;102530.25;;;7.03;67.51
51603;BME280;37954;51.980;5.850;2023-05-18T04:08:13;102521.25;;;7.04;67.15
51603;BME280;37954;51.980;5.850;2023-05-18T04:12:25;102520.28;;;7.13;66.68
51603;BME280;37954;51.980;5.850;2023-05-18T04:16:37;102533.59;;;7.31;66.87
51603;BME280;37954;51.980;5.850;2023-05-18T04:20:48;102539.41;;;7.52;66.69
51603;BME280;37954;51.980;5.850;2023-05-18T04:25:01;102522.69;;;7.50;66.14
51603;BME280;37954;51.980;5.850;2023-05-18T04:29:13;102535.47;;;7.64;65.69
51603;BME280;37954;51.980;5.850;2023-05-18T04:33:28;102557.00;;;7.89;65.06
51603;BME280;37954;51.980;5.850;2023-05-18T04:37:39;102552.16;;;8.51;64.40
51603;BME280;37954;51.980;5.850;2023-05-18T04:41:55;102539.28;;;9.27;62.89
51603;BME280;37954;51.980;5.850;2023-05-18T04:46:10;102545.03;;;9.71;61.38
51603;BME280;37954;51.980;5.850;2023-05-18T04:50:24;102552.81;;;10.36;59.72
51603;BME280;37954;51.980;5.850;2023-05-18T04:54:36;102562.16;;;11.09;58.22
51603;BME280;37954;51.980;5.850;2023-05-18T04:58:48;102551.31;;;11.55;56.22
51603;BME280;37954;51.980;5.850;2023-05-18T05:03:00;102572.84;;;11.84;55.02
51603;BME280;37954;51.980;5.850;2023-05-18T05:07:13;102588.03;;;12.36;53.08
51603;BME280;37954;51.980;5.850;2023-05-18T05:11:28;102574.72;;;12.92;52.58
51603;BME280;37954;51.980;5.850;2023-05-18T05:15:42;102573.16;;;13.25;51.16
51603;BME280;37954;51.980;5.850;2023-05-18T05:20:56;102576.03;;;13.02;49.93
51603;BME280;37954;51.980;5.850;2023-05-18T05:25:34;102581.06;;;13.27;49.51
51603;BME280;37954;51.980;5.850;2023-05-18T05:29:47;102567.66;;;13.74;49.11
51603;BME280;37954;51.980;5.850;2023-05-18T05:34:00;102564.97;;;14.15;47.82
51603;BME280;37954;51.980;5.850;2023-05-18T05:38:12;102576.97;;;14.06;46.56
51603;BME280;37954;51.980;5.850;2023-05-18T05:42:24;102573.13;;;13.53;47.31
51603;BME280;37954;51.980;5.850;2023-05-18T05:46:36;102570.41;;;12.97;47.67
51603;BME280;37954;51.980;5.850;2023-05-18T05:50:49;102558.25;;;12.65;47.92
51603;BME280;37954;51.980;5.850;2023-05-18T05:55:01;102545.63;;;12.87;48.37
51603;BME280;37954;51.980;5.850;2023-05-18T05:59:14;102579.03;;;14.04;47.29
51603;BME280;37954;51.980;5.850;2023-05-18T06:03:26;102556.81;;;14.70;45.24
51603;BME280;37954;51.980;5.850;2023-05-18T06:07:43;102576.00;;;15.34;43.74
51603;BME280;37954;51.980;5.850;2023-05-18T06:11:55;102581.09;;;15.95;42.82
51603;BME280;37954;51.980;5.850;2023-05-18T06:16:09;102577.88;;;16.24;41.10
51603;BME280;37954;51.980;5.850;2023-05-18T06:20:21;102580.56;;;16.62;40.41
51603;BME280;37954;51.980;5.850;2023-05-18T06:24:34;102590.16;;;16.27;39.37
51603;BME280;37954;51.980;5.850;2023-05-18T06:29:04;102583.63;;;15.77;39.80
51603;BME280;37954;51.980;5.850;2023-05-18T06:33:31;102581.00;;;16.15;40.20
51603;BME280;37954;51.980;5.850;2023-05-18T06:37:43;102593.09;;;16.25;39.76
51603;BME280;37954;51.980;5.850;2023-05-18T06:41:58;102593.75;;;16.97;39.27
51603;BME280;37954;51.980;5.850;2023-05-18T06:46:20;102609.66;;;17.43;38.24
51603;BME280;37954;51.980;5.850;2023-05-18T06:50:34;102595.81;;;17.88;37.88
51603;BME280;37954;51.980;5.850;2023-05-18T06:54:47;102600.34;;;18.30;37.00
51603;BME280;37954;51.980;5.850;2023-05-18T06:58:58;102586.44;;;18.68;36.24
51603;BME280;37954;51.980;5.850;2023-05-18T07:03:12;102584.66;;;18.62;35.66
51603;BME280;37954;51.980;5.850;2023-05-18T07:07:23;102600.19;;;18.55;35.75
51603;BME280;37954;51.980;5.850;2023-05-18T07:11:35;102593.44;;;18.76;35.27
51603;BME280;37954;51.980;5.850;2023-05-18T07:15:47;102608.19;;;18.98;34.79
51603;BME280;37954;51.980;5.850;2023-05-18T07:20:00;102609.84;;;18.99;34.88
51603;BME280;37954;51.980;5.850;2023-05-18T07:24:12;102597.53;;;18.97;34.47
51603;BME280;37954;51.980;5.850;2023-05-18T07:28:23;102617.19;;;18.99;34.40
51603;BME280;37954;51.980;5.850;2023-05-18T07:32:35;102612.88;;;19.21;34.08
51603;BME280;37954;51.980;5.850;2023-05-18T07:36:47;102616.94;;;19.54;33.43
51603;BME280;37954;51.980;5.850;2023-05-18T07:40:59;102617.28;;;20.32;33.41
51603;BME280;37954;51.980;5.850;2023-05-18T07:45:11;102619.50;;;20.75;32.38
51603;BME280;37954;51.980;5.850;2023-05-18T07:49:22;102620.56;;;21.19;32.13
51603;BME280;37954;51.980;5.850;2023-05-18T07:53:35;102624.53;;;21.12;31.59
51603;BME280;37954;51.980;5.850;2023-05-18T07:57:48;102617.22;;;21.17;31.73
51603;BME280;37954;51.980;5.850;2023-05-18T08:02:00;102616.41;;;21.34;30.80
51603;BME280;37954;51.980;5.850;2023-05-18T08:06:12;102622.94;;;21.49;30.31
51603;BME280;37954;51.980;5.850;2023-05-18T08:10:24;102631.00;;;22.33;30.14
51603;BME280;37954;51.980;5.850;2023-05-18T08:14:36;102624.13;;;22.79;29.05
51603;BME280;37954;51.980;5.850;2023-05-18T08:18:47;102630.34;;;21.87;29.06
51603;BME280;37954;51.980;5.850;2023-05-18T08:22:59;102632.41;;;20.80;29.58
51603;BME280;37954;51.980;5.850;2023-05-18T08:27:11;102643.69;;;20.03;30.63
51603;BME280;37954;51.980;5.850;2023-05-18T08:31:22;102619.63;;;19.42;31.71
51603;BME280;37954;51.980;5.850;2023-05-18T08:35:34;102621.19;;;19.38;32.24
51603;BME280;37954;51.980;5.850;2023-05-18T08:39:46;102627.94;;;19.35;32.35
51603;BME280;37954;51.980;5.850;2023-05-18T08:44:01;102634.28;;;19.18;32.70
51603;BME280;37954;51.980;5.850;2023-05-18T08:48:15;102617.84;;;19.47;32.77
51603;BME280;37954;51.980;5.850;2023-05-18T08:52:29;102613.22;;;20.35;32.02
51603;BME280;37954;51.980;5.850;2023-05-18T08:56:45;102601.75;;;21.06;31.31
51603;BME280;37954;51.980;5.850;2023-05-18T09:00:57;102615.78;;;21.43;30.25
51603;BME280;37954;51.980;5.850;2023-05-18T09:05:09;102617.38;;;21.78;29.45
51603;BME280;37954;51.980;5.850;2023-05-18T09:09:23;102600.44;;;21.81;29.39
51603;BME280;37954;51.980;5.850;2023-05-18T09:13:35;102604.97;;;21.92;29.54
51603;BME280;37954;51.980;5.850;2023-05-18T09:17:48;102598.06;;;22.28;28.95
51603;BME280;37954;51.980;5.850;2023-05-18T09:22:00;102596.91;;;23.00;28.52
51603;BME280;37954;51.980;5.850;2023-05-18T09:26:12;102596.13;;;22.77;27.91
51603;BME280;37954;51.980;5.850;2023-05-18T09:30:24;102601.94;;;22.81;28.10
51603;BME280;37954;51.980;5.850;2023-05-18T09:34:40;102589.63;;;22.35;27.72
51603;BME280;37954;51.980;5.850;2023-05-18T09:38:52;102579.34;;;21.98;28.05
51603;BME280;37954;51.980;5.850;2023-05-18T09:43:07;102583.63;;;21.72;28.79
51603;BME280;37954;51.980;5.850;2023-05-18T09:47:19;102563.91;;;21.70;28.50
51603;BME280;37954;51.980;5.850;2023-05-18T09:51:37;102575.63;;;22.31;28.74
51603;BME280;37954;51.980;5.850;2023-05-18T09:55:49;102565.41;;;22.48;28.10
51603;BME280;37954;51.980;5.850;2023-05-18T10:00:04;102574.13;;;22.72;27.93
51603;BME280;37954;51.980;5.850;2023-05-18T10:04:20;102581.75;;;22.65;28.01
51603;BME280;37954;51.980;5.850;2023-05-18T10:08:35;102561.00;;;22.74;27.91
51603;BME280;37954;51.980;5.850;2023-05-18T10:17:03;102572.78;;;23.02;27.21
51603;BME280;37954;51.980;5.850;2023-05-18T10:21:27;102568.47;;;22.79;26.93
51603;BME280;37954;51.980;5.850;2023-05-18T10:25:44;102567.91;;;22.50;27.62
51603;BME280;37954;51.980;5.850;2023-05-18T10:29:57;102553.56;;;22.43;27.28
51603;BME280;37954;51.980;5.850;2023-05-18T10:34:09;102553.06;;;22.46;27.48
51603;BME280;37954;51.980;5.850;2023-05-18T10:38:23;102556.16;;;22.81;27.44
51603;BME280;37954;51.980;5.850;2023-05-18T10:42:35;102549.41;;;22.94;27.32
51603;BME280;37954;51.980;5.850;2023-05-18T10:46:49;102541.94;;;22.84;27.49
51603;BME280;37954;51.980;5.850;2023-05-18T10:51:02;102537.88;;;23.29;27.76
51603;BME280;37954;51.980;5.850;2023-05-18T10:55:17;102557.09;;;23.71;26.30
51603;BME280;37954;51.980;5.850;2023-05-18T10:59:29;102548.28;;;23.69;26.12
51603;BME280;37954;51.980;5.850;2023-05-18T11:03:41;102552.00;;;24.05;25.80
51603;BME280;37954;51.980;5.850;2023-05-18T11:08:02;102549.19;;;23.90;25.68
51603;BME280;37954;51.980;5.850;2023-05-18T11:12:16;102550.03;;;23.95;25.84
51603;BME280;37954;51.980;5.850;2023-05-18T11:16:33;102533.31;;;24.07;25.70
51603;BME280;37954;51.980;5.850;2023-05-18T11:21:51;102531.72;;;24.21;25.29
51603;BME280;37954;51.980;5.850;2023-05-18T11:26:03;102531.44;;;24.18;25.58
51603;BME280;37954;51.980;5.850;2023-05-18T11:30:29;102532.69;;;23.80;25.64
51603;BME280;37954;51.980;5.850;2023-05-18T11:34:45;102522.31;;;23.45;25.74
51603;BME280;37954;51.980;5.850;2023-05-18T11:39:05;102517.72;;;23.55;26.48
51603;BME280;37954;51.980;5.850;2023-05-18T11:43:23;102530.53;;;23.40;26.30
51603;BME280;37954;51.980;5.850;2023-05-18T11:47:36;102513.31;;;23.07;26.30
51603;BME280;37954;51.980;5.850;2023-05-18T11:52:05;102517.41;;;22.73;26.10
51603;BME280;37954;51.980;5.850;2023-05-18T11:56:17;102522.09;;;22.18;26.51
51603;BME280;37954;51.980;5.850;2023-05-18T12:00:29;102512.75;;;21.71;27.26
51603;BME280;37954;51.980;5.850;2023-05-18T12:04:44;102508.09;;;21.71;27.53
51603;BME280;37954;51.980;5.850;2023-05-18T12:08:57;102495.56;;;21.53;27.48
51603;BME280;37954;51.980;5.850;2023-05-18T12:13:12;102486.94;;;21.06;28.12
51603;BME280;37954;51.980;5.850;2023-05-18T12:17:37;102494.72;;;20.98;28.48
51603;BME280;37954;51.980;5.850;2023-05-18T12:21:51;102488.16;;;20.77;29.07
51603;BME280;37954;51.980;5.850;2023-05-18T12:26:03;102477.53;;;20.64;29.64
51603;BME280;37954;51.980;5.850;2023-05-18T12:30:23;102476.53;;;20.70;29.90
51603;BME280;37954;51.980;5.850;2023-05-18T12:34:35;102472.72;;;20.37;30.37
51603;BME280;37954;51.980;5.850;2023-05-18T12:38:50;102477.84;;;20.50;30.16
51603;BME280;37954;51.980;5.850;2023-05-18T12:43:02;102488.28;;;20.08;31.16
51603;BME280;37954;51.980;5.850;2023-05-18T12:47:14;102476.47;;;20.20;30.83
51603;BME280;37954;51.980;5.850;2023-05-18T12:51:34;102475.44;;;20.37;30.65
51603;BME280;37954;51.980;5.850;2023-05-18T12:55:55;102475.72;;;20.53;30.03
51603;BME280;37954;51.980;5.850;2023-05-18T13:00:11;102487.84;;;20.45;30.10
51603;BME280;37954;51.980;5.850;2023-05-18T13:04:22;102470.97;;;20.48;30.16
51603;BME280;37954;51.980;5.850;2023-05-18T13:08:42;102472.34;;;20.34;30.15
51603;BME280;37954;51.980;5.850;2023-05-18T13:12:54;102478.88;;;20.33;29.86
51603;BME280;37954;51.980;5.850;2023-05-18T13:17:20;102471.72;;;20.43;29.62
51603;BME280;37954;51.980;5.850;2023-05-18T13:21:33;102470.41;;;20.17;29.90
51603;BME280;37954;51.980;5.850;2023-05-18T13:25:45;102463.78;;;20.13;30.14
51603;BME280;37954;51.980;5.850;2023-05-18T13:29:57;102453.66;;;20.26;30.13
51603;BME280;37954;51.980;5.850;2023-05-18T13:34:10;102448.09;;;20.21;30.23
51603;BME280;37954;51.980;5.850;2023-05-18T13:38:21;102452.63;;;20.15;30.01
51603;BME280;37954;51.980;5.850;2023-05-18T13:42:33;102434.13;;;20.17;30.28
51603;BME280;37954;51.980;5.850;2023-05-18T13:46:45;102441.38;;;20.11;30.16
51603;BME280;37954;51.980;5.850;2023-05-18T13:50:56;102443.94;;;20.01;30.37
51603;BME280;37954;51.980;5.850;2023-05-18T13:55:08;102429.00;;;20.21;30.39
51603;BME280;37954;51.980;5.850;2023-05-18T13:59:22;102431.31;;;20.29;30.73
51603;BME280;37954;51.980;5.850;2023-05-18T14:03:34;102424.28;;;20.16;30.53
51603;BME280;37954;51.980;5.850;2023-05-18T14:07:47;102424.72;;;19.96;30.81
51603;BME280;37954;51.980;5.850;2023-05-18T14:11:59;102407.88;;;19.99;30.81
51603;BME280;37954;51.980;5.850;2023-05-18T14:16:11;102403.78;;;19.85;31.13
51603;BME280;37954;51.980;5.850;2023-05-18T14:20:22;102402.28;;;19.77;31.55
51603;BME280;37954;51.980;5.850;2023-05-18T14:24:34;102407.97;;;19.76;31.52
51603;BME280;37954;51.980;5.850;2023-05-18T14:28:46;102396.19;;;19.59;31.88
51603;BME280;37954;51.980;5.850;2023-05-18T14:32:58;102376.69;;;19.27;31.92
51603;BME280;37954;51.980;5.850;2023-05-18T14:37:12;102392.97;;;19.10;31.85
51603;BME280;37954;51.980;5.850;2023-05-18T14:41:23;102399.97;;;19.18;32.22
51603;BME280;37954;51.980;5.850;2023-05-18T14:45:35;102376.41;;;19.00;32.08
51603;BME280;37954;51.980;5.850;2023-05-18T14:49:47;102393.69;;;19.05;32.46
51603;BME280;37954;51.980;5.850;2023-05-18T14:53:59;102393.44;;;19.07;32.20
51603;BME280;37954;51.980;5.850;2023-05-18T14:58:11;102396.91;;;19.02;32.24
51603;BME280;37954;51.980;5.850;2023-05-18T15:02:25;102388.13;;;18.89;32.32
51603;BME280;37954;51.980;5.850;2023-05-18T15:06:37;102382.13;;;18.63;32.31
51603;BME280;37954;51.980;5.850;2023-05-18T15:10:48;102382.56;;;18.49;32.69
51603;BME280;37954;51.980;5.850;2023-05-18T15:15:00;102386.91;;;18.38;32.62
51603;BME280;37954;51.980;5.850;2023-05-18T15:19:12;102383.81;;;18.23;32.89
51603;BME280;37954;51.980;5.850;2023-05-18T15:23:24;102381.09;;;18.23;33.56
51603;BME280;37954;51.980;5.850;2023-05-18T15:27:36;102377.19;;;18.19;33.63
51603;BME280;37954;51.980;5.850;2023-05-18T15:31:48;102378.50;;;18.28;33.51
51603;BME280;37954;51.980;5.850;2023-05-18T15:36:02;102376.84;;;18.15;33.45
51603;BME280;37954;51.980;5.850;2023-05-18T15:40:17;102371.41;;;18.27;33.57
51603;BME280;37954;51.980;5.850;2023-05-18T15:44:29;102365.47;;;18.06;34.12
51603;BME280;37954;51.980;5.850;2023-05-18T15:48:41;102360.13;;;18.00;34.17
51603;BME280;37954;51.980;5.850;2023-05-18T15:52:53;102357.44;;;18.00;34.97
51603;BME280;37954;51.980;5.850;2023-05-18T15:57:05;102356.34;;;18.01;34.83
51603;BME280;37954;51.980;5.850;2023-05-18T16:01:16;102358.34;;;18.05;35.49
51603;BME280;37954;51.980;5.850;2023-05-18T16:05:29;102348.16;;;18.01;35.23
51603;BME280;37954;51.980;5.850;2023-05-18T16:09:40;102358.13;;;18.07;34.81
51603;BME280;37954;51.980;5.850;2023-05-18T16:13:52;102360.25;;;18.05;35.17
51603;BME280;37954;51.980;5.850;2023-05-18T16:18:07;102342.41;;;17.97;34.79
51603;BME280;37954;51.980;5.850;2023-05-18T16:22:19;102333.84;;;17.82;34.98
51603;BME280;37954;51.980;5.850;2023-05-18T16:26:32;102342.47;;;17.79;35.16
51603;BME280;37954;51.980;5.850;2023-05-18T16:30:44;102346.69;;;17.75;35.34
51603;BME280;37954;51.980;5.850;2023-05-18T16:34:55;102332.53;;;17.55;35.25
51603;BME280;37954;51.980;5.850;2023-05-18T16:39:07;102349.84;;;17.42;34.81
51603;BME280;37954;51.980;5.850;2023-05-18T16:43:19;102339.66;;;17.37;34.85
51603;BME280;37954;51.980;5.850;2023-05-18T16:47:31;102341.31;;;17.38;34.81
51603;BME280;37954;51.980;5.850;2023-05-18T16:51:43;102339.34;;;17.46;34.96
51603;BME280;37954;51.980;5.850;2023-05-18T16:55:55;102335.75;;;17.33;34.99
51603;BME280;37954;51.980;5.850;2023-05-18T17:00:08;102331.69;;;17.24;35.03
51603;BME280;37954;51.980;5.850;2023-05-18T17:04:20;102339.25;;;17.22;35.00
51603;BME280;37954;51.980;5.850;2023-05-18T17:08:32;102332.69;;;17.12;35.17
51603;BME280;37954;51.980;5.850;2023-05-18T17:12:44;102329.97;;;17.12;35.46
51603;BME280;37954;51.980;5.850;2023-05-18T17:16:56;102336.59;;;17.16;35.50
51603;BME280;37954;51.980;5.850;2023-05-18T17:21:08;102329.59;;;17.08;35.12
51603;BME280;37954;51.980;5.850;2023-05-18T17:25:19;102316.53;;;16.98;35.46
51603;BME280;37954;51.980;5.850;2023-05-18T17:29:31;102328.94;;;16.94;35.29
51603;BME280;37954;51.980;5.850;2023-05-18T17:33:43;102322.22;;;16.79;35.22
51603;BME280;37954;51.980;5.850;2023-05-18T17:37:57;102317.31;;;16.62;35.37
51603;BME280;37954;51.980;5.850;2023-05-18T17:42:09;102329.88;;;16.63;35.50
51603;BME280;37954;51.980;5.850;2023-05-18T17:46:21;102328.19;;;16.62;35.73
51603;BME280;37954;51.980;5.850;2023-05-18T17:50:33;102329.75;;;16.52;35.92
51603;BME280;37954;51.980;5.850;2023-05-18T17:54:48;102332.09;;;16.48;35.81
51603;BME280;37954;51.980;5.850;2023-05-18T17:59:03;102317.38;;;16.38;35.99
51603;BME280;37954;51.980;5.850;2023-05-18T18:03:15;102323.84;;;16.36;35.93
51603;BME280;37954;51.980;5.850;2023-05-18T18:07:27;102326.78;;;16.35;36.14
51603;BME280;37954;51.980;5.850;2023-05-18T18:11:39;102328.44;;;16.36;36.35
51603;BME280;37954;51.980;5.850;2023-05-18T18:15:52;102321.41;;;16.28;36.74
51603;BME280;37954;51.980;5.850;2023-05-18T18:20:04;102321.72;;;16.20;36.90
51603;BME280;37954;51.980;5.850;2023-05-18T18:24:16;102322.16;;;16.17;36.95
51603;BME280;37954;51.980;5.850;2023-05-18T18:28:28;102335.53;;;16.12;37.43
51603;BME280;37954;51.980;5.850;2023-05-18T18:32:40;102333.72;;;16.06;37.50
51603;BME280;37954;51.980;5.850;2023-05-18T18:36:52;102338.75;;;16.02;37.63
51603;BME280;37954;51.980;5.850;2023-05-18T18:41:04;102328.88;;;15.83;38.21
51603;BME280;37954;51.980;5.850;2023-05-18T18:45:15;102336.41;;;15.81;38.23
51603;BME280;37954;51.980;5.850;2023-05-18T18:49:27;102326.47;;;15.69;38.74
51603;BME280;37954;51.980;5.850;2023-05-18T18:53:39;102342.13;;;15.66;39.00
51603;BME280;37954;51.980;5.850;2023-05-18T18:57:51;102336.34;;;15.56;38.92
51603;BME280;37954;51.980;5.850;2023-05-18T19:02:06;102341.16;;;15.48;39.03
51603;BME280;37954;51.980;5.850;2023-05-18T19:06:18;102344.34;;;15.38;39.23
51603;BME280;37954;51.980;5.850;2023-05-18T19:10:30;102341.44;;;15.26;39.71
51603;BME280;37954;51.980;5.850;2023-05-18T19:14:44;102346.94;;;15.13;40.16
51603;BME280;37954;51.980;5.850;2023-05-18T19:18:56;102342.41;;;15.01;40.01
51603;BME280;37954;51.980;5.850;2023-05-18T19:23:07;102355.53;;;14.97;40.54
51603;BME280;37954;51.980;5.850;2023-05-18T19:27:19;102345.78;;;14.76;41.04
51603;BME280;37954;51.980;5.850;2023-05-18T19:31:31;102365.97;;;14.74;41.24
51603;BME280;37954;51.980;5.850;2023-05-18T19:35:44;102364.53;;;14.58;41.52
51603;BME280;37954;51.980;5.850;2023-05-18T19:39:56;102367.47;;;14.50;42.15
51603;BME280;37954;51.980;5.850;2023-05-18T19:44:08;102372.03;;;14.36;42.05
51603;BME280;37954;51.980;5.850;2023-05-18T19:48:20;102369.72;;;14.26;42.23
51603;BME280;37954;51.980;5.850;2023-05-18T19:52:32;102358.09;;;14.13;42.54
51603;BME280;37954;51.980;5.850;2023-05-18T19:56:44;102367.84;;;14.07;42.76
51603;BME280;37954;51.980;5.850;2023-05-18T20:00:56;102377.00;;;14.00;43.18
51603;BME280;37954;51.980;5.850;2023-05-18T20:05:08;102369.69;;;13.87;43.72
51603;BME280;37954;51.980;5.850;2023-05-18T20:09:23;102375.28;;;13.79;43.89
51603;BME280;37954;51.980;5.850;2023-05-18T20:13:35;102371.94;;;13.70;43.97
51603;BME280;37954;51.980;5.850;2023-05-18T20:17:47;102371.53;;;13.67;44.36
51603;BME280;37954;51.980;5.850;2023-05-18T20:21:59;102366.88;;;13.47;44.98
51603;BME280;37954;51.980;5.850;2023-05-18T20:26:11;102365.03;;;13.48;45.09
51603;BME280;37954;51.980;5.850;2023-05-18T20:30:22;102377.25;;;13.44;45.24
51603;BME280;37954;51.980;5.850;2023-05-18T20:34:34;102376.19;;;13.38;45.19
51603;BME280;37954;51.980;5.850;2023-05-18T20:38:46;102377.63;;;13.34;45.06
51603;BME280;37954;51.980;5.850;2023-05-18T20:42:59;102380.09;;;13.29;45.47
51603;BME280;37954;51.980;5.850;2023-05-18T20:47:11;102382.75;;;13.22;45.81
51603;BME280;37954;51.980;5.850;2023-05-18T20:51:23;102379.78;;;13.11;46.30
51603;BME280;37954;51.980;5.850;2023-05-18T20:55:35;102393.66;;;13.08;46.74
51603;BME280;37954;51.980;5.850;2023-05-18T20:59:49;102391.53;;;12.97;48.16
51603;BME280;37954;51.980;5.850;2023-05-18T21:04:01;102395.97;;;12.83;49.15
51603;BME280;37954;51.980;5.850;2023-05-18T21:08:16;102391.16;;;12.72;51.49
51603;BME280;37954;51.980;5.850;2023-05-18T21:12:27;102406.88;;;12.68;53.31
51603;BME280;37954;51.980;5.850;2023-05-18T21:16:39;102392.84;;;12.51;53.73
51603;BME280;37954;51.980;5.850;2023-05-18T21:20:51;102398.25;;;12.51;54.26
51603;BME280;37954;51.980;5.850;2023-05-18T21:25:05;102392.38;;;12.41;55.08
51603;BME280;37954;51.980;5.850;2023-05-18T21:29:17;102393.47;;;12.26;55.49
51603;BME280;37954;51.980;5.850;2023-05-18T21:33:29;102392.97;;;12.15;56.39
51603;BME280;37954;51.980;5.850;2023-05-18T21:37:40;102393.66;;;12.03;56.64
51603;BME280;37954;51.980;5.850;2023-05-18T21:41:52;102397.97;;;11.97;57.82
51603;BME280;37954;51.980;5.850;2023-05-18T21:46:04;102379.53;;;11.79;58.72
51603;BME280;37954;51.980;5.850;2023-05-18T21:50:19;102388.44;;;11.80;59.41
51603;BME280;37954;51.980;5.850;2023-05-18T21:54:31;102403.59;;;11.81;60.33
51603;BME280;37954;51.980;5.850;2023-05-18T21:58:43;102398.13;;;11.74;60.44
51603;BME280;37954;51.980;5.850;2023-05-18T22:02:57;102402.56;;;11.67;60.94
51603;BME280;37954;51.980;5.850;2023-05-18T22:07:08;102390.81;;;11.54;61.24
51603;BME280;37954;51.980;5.850;2023-05-18T22:11:20;102399.28;;;11.50;62.19
51603;BME280;37954;51.980;5.850;2023-05-18T22:15:33;102405.41;;;11.44;62.81
51603;BME280;37954;51.980;5.850;2023-05-18T22:19:47;102396.44;;;11.37;62.50